sensor_id;sensor_type;location;lat;lon;timestamp;pressure;altitude;pressure_sealevel;temperature
66403;BMP180;53212;52.112;5.144;2023-12-20T00:01:22;101516.60;;;6.10
66403;BMP180;53212;52.112;5.144;2023-12-20T00:03:47;101517.60;;;6.10
66403;BMP180;53212;52.112;5.144;2023-12-20T00:06:13;101510.00;;;6.10
66403;BMP180;53212;52.112;5.144;2023-12-20T00:08:39;101506.80;;;6.10
66403;BMP180;53212;52.112;5.144;2023-12-20T00:11:04;101510.40;;;6.08
66403;BMP180;53212;52.112;5.144;2023-12-20T00:13:30;101509.20;;;6.00
66403;BMP180;53212;52.112;5.144;2023-12-20T00:15:55;101502.00;;;6.00
66403;BMP180;53212;52.112;5.144;2023-12-20T00:18:21;101502.40;;;6.00
66403;BMP180;53212;52.112;5.144;2023-12-20T00:20:46;101509.20;;;5.98
66403;BMP180;53212;52.112;5.144;2023-12-20T00:23:12;101502.20;;;6.00
66403;BMP180;53212;52.112;5.144;2023-12-20T00:25:37;101495.60;;;6.00
66403;BMP180;53212;52.112;5.144;2023-12-20T00:28:03;101492.80;;;6.00
66403;BMP180;53212;52.112;5.144;2023-12-20T00:30:28;101493.00;;;5.92
66403;BMP180;53212;52.112;5.144;2023-12-20T00:32:56;101493.20;;;5.90
66403;BMP180;53212;52.112;5.144;2023-12-20T00:35:21;101497.00;;;5.90
66403;BMP180;53212;52.112;5.144;2023-12-20T00:37:47;101494.40;;;5.90
66403;BMP180;53212;52.112;5.144;2023-12-20T00:40:12;101497.80;;;5.90
66403;BMP180;53212;52.112;5.144;2023-12-20T00:42:38;101498.20;;;5.90
66403;BMP180;53212;52.112;5.144;2023-12-20T00:45:04;101500.20;;;5.90
66403;BMP180;53212;52.112;5.144;2023-12-20T00:47:31;101498.60;;;5.92
66403;BMP180;53212;52.112;5.144;2023-12-20T00:49:57;101493.20;;;5.90
66403;BMP180;53212;52.112;5.144;2023-12-20T00:52:23;101489.20;;;5.90
66403;BMP180;53212;52.112;5.144;2023-12-20T00:54:49;101490.40;;;5.90
66403;BMP180;53212;52.112;5.144;2023-12-20T00:57:14;101491.00;;;5.90
66403;BMP180;53212;52.112;5.144;2023-12-20T00:59:40;101491.60;;;5.88
66403;BMP180;53212;52.112;5.144;2023-12-20T01:02:06;101489.60;;;5.90
66403;BMP180;53212;52.112;5.144;2023-12-20T01:04:31;101495.80;;;5.90
66403;BMP180;53212;52.112;5.144;2023-12-20T01:06:57;101490.60;;;5.90
66403;BMP180;53212;52.112;5.144;2023-12-20T01:09:22;101491.20;;;5.92
66403;BMP180;53212;52.112;5.144;2023-12-20T01:11:54;101494.20;;;6.00
66403;BMP180;53212;52.112;5.144;2023-12-20T01:14:20;101484.40;;;6.00
66403;BMP180;53212;52.112;5.144;2023-12-20T01:16:46;101479.20;;;6.00
66403;BMP180;53212;52.112;5.144;2023-12-20T01:19:13;101478.20;;;6.00
66403;BMP180;53212;52.112;5.144;2023-12-20T01:21:39;101485.00;;;6.00
66403;BMP180;53212;52.112;5.144;2023-12-20T01:24:05;101494.80;;;6.10
66403;BMP180;53212;52.112;5.144;2023-12-20T01:26:30;101507.60;;;6.20
66403;BMP180;53212;52.112;5.144;2023-12-20T01:28:56;101511.20;;;6.20
66403;BMP180;53212;52.112;5.144;2023-12-20T01:31:21;101507.20;;;6.20
66403;BMP180;53212;52.112;5.144;2023-12-20T01:33:47;101509.00;;;6.30
66403;BMP180;53212;52.112;5.144;2023-12-20T01:36:13;101506.80;;;6.30
66403;BMP180;53212;52.112;5.144;2023-12-20T01:38:38;101497.00;;;6.30
66403;BMP180;53212;52.112;5.144;2023-12-20T01:41:04;101483.60;;;6.30
66403;BMP180;53212;52.112;5.144;2023-12-20T01:43:30;101479.40;;;6.30
66403;BMP180;53212;52.112;5.144;2023-12-20T01:45:59;101477.80;;;6.30
66403;BMP180;53212;52.112;5.144;2023-12-20T01:48:25;101479.20;;;6.24
66403;BMP180;53212;52.112;5.144;2023-12-20T01:50:53;101476.40;;;6.22
66403;BMP180;53212;52.112;5.144;2023-12-20T01:53:21;101481.20;;;6.30
66403;BMP180;53212;52.112;5.144;2023-12-20T01:55:49;101485.20;;;6.30
66403;BMP180;53212;52.112;5.144;2023-12-20T01:58:16;101485.20;;;6.40
66403;BMP180;53212;52.112;5.144;2023-12-20T02:00:42;101485.20;;;6.40
66403;BMP180;53212;52.112;5.144;2023-12-20T02:03:08;101484.40;;;6.40
66403;BMP180;53212;52.112;5.144;2023-12-20T02:05:35;101490.00;;;6.40
66403;BMP180;53212;52.112;5.144;2023-12-20T02:08:03;101483.60;;;6.50
66403;BMP180;53212;52.112;5.144;2023-12-20T02:10:29;101484.60;;;6.50
66403;BMP180;53212;52.112;5.144;2023-12-20T02:12:55;101483.60;;;6.50
66403;BMP180;53212;52.112;5.144;2023-12-20T02:15:20;101477.20;;;6.50
66403;BMP180;53212;52.112;5.144;2023-12-20T02:17:47;101479.80;;;6.52
66403;BMP180;53212;52.112;5.144;2023-12-20T02:20:14;101482.40;;;6.52
66403;BMP180;53212;52.112;5.144;2023-12-20T02:22:39;101486.20;;;6.50
66403;BMP180;53212;52.112;5.144;2023-12-20T02:25:05;101482.80;;;6.50
66403;BMP180;53212;52.112;5.144;2023-12-20T02:27:31;101480.20;;;6.50
66403;BMP180;53212;52.112;5.144;2023-12-20T02:29:57;101480.20;;;6.50
66403;BMP180;53212;52.112;5.144;2023-12-20T02:32:24;101468.00;;;6.50
66403;BMP180;53212;52.112;5.144;2023-12-20T02:34:53;101469.40;;;6.50
66403;BMP180;53212;52.112;5.144;2023-12-20T02:37:19;101466.60;;;6.50
66403;BMP180;53212;52.112;5.144;2023-12-20T02:39:44;101468.80;;;6.54
66403;BMP180;53212;52.112;5.144;2023-12-20T02:42:10;101468.20;;;6.60
66403;BMP180;53212;52.112;5.144;2023-12-20T02:44:36;101463.80;;;6.60
66403;BMP180;53212;52.112;5.144;2023-12-20T02:47:02;101466.40;;;6.70
66403;BMP180;53212;52.112;5.144;2023-12-20T02:49:28;101471.20;;;6.70
66403;BMP180;53212;52.112;5.144;2023-12-20T02:51:53;101467.00;;;6.76
66403;BMP180;53212;52.112;5.144;2023-12-20T02:54:19;101461.20;;;6.80
66403;BMP180;53212;52.112;5.144;2023-12-20T02:56:44;101470.00;;;6.80
66403;BMP180;53212;52.112;5.144;2023-12-20T02:59:10;101465.00;;;6.90
66403;BMP180;53212;52.112;5.144;2023-12-20T03:01:41;101456.20;;;6.90
66403;BMP180;53212;52.112;5.144;2023-12-20T03:04:07;101449.40;;;6.90
66403;BMP180;53212;52.112;5.144;2023-12-20T03:06:32;101451.00;;;6.90
66403;BMP180;53212;52.112;5.144;2023-12-20T03:08:58;101444.40;;;7.00
66403;BMP180;53212;52.112;5.144;2023-12-20T03:11:27;101445.00;;;7.00
66403;BMP180;53212;52.112;5.144;2023-12-20T03:13:53;101442.20;;;7.00
66403;BMP180;53212;52.112;5.144;2023-12-20T03:16:18;101427.20;;;7.00
66403;BMP180;53212;52.112;5.144;2023-12-20T03:18:44;101430.60;;;6.98
66403;BMP180;53212;52.112;5.144;2023-12-20T03:21:09;101432.60;;;6.90
66403;BMP180;53212;52.112;5.144;2023-12-20T03:23:35;101430.60;;;6.90
66403;BMP180;53212;52.112;5.144;2023-12-20T03:26:00;101426.80;;;6.90
66403;BMP180;53212;52.112;5.144;2023-12-20T03:28:27;101425.80;;;6.90
66403;BMP180;53212;52.112;5.144;2023-12-20T03:30:52;101440.60;;;6.90
66403;BMP180;53212;52.112;5.144;2023-12-20T03:33:18;101438.20;;;6.90
66403;BMP180;53212;52.112;5.144;2023-12-20T03:35:44;101442.00;;;6.90
66403;BMP180;53212;52.112;5.144;2023-12-20T03:38:09;101437.40;;;6.96
66403;BMP180;53212;52.112;5.144;2023-12-20T03:40:35;101434.40;;;6.92
66403;BMP180;53212;52.112;5.144;2023-12-20T03:43:01;101428.20;;;6.90
66403;BMP180;53212;52.112;5.144;2023-12-20T03:45:26;101434.60;;;6.90
66403;BMP180;53212;52.112;5.144;2023-12-20T03:47:52;101436.20;;;6.90
66403;BMP180;53212;52.112;5.144;2023-12-20T03:50:25;101433.60;;;6.90
66403;BMP180;53212;52.112;5.144;2023-12-20T03:52:51;101436.80;;;6.80
66403;BMP180;53212;52.112;5.144;2023-12-20T03:55:17;101427.80;;;6.80
66403;BMP180;53212;52.112;5.144;2023-12-20T03:57:43;101434.80;;;6.80
66403;BMP180;53212;52.112;5.144;2023-12-20T04:00:09;101434.40;;;6.86
66403;BMP180;53212;52.112;5.144;2023-12-20T04:02:42;101433.40;;;6.90
66403;BMP180;53212;52.112;5.144;2023-12-20T04:05:08;101440.40;;;6.90
66403;BMP180;53212;52.112;5.144;2023-12-20T04:07:35;101438.20;;;6.90
66403;BMP180;53212;52.112;5.144;2023-12-20T04:10:01;101440.60;;;6.90
66403;BMP180;53212;52.112;5.144;2023-12-20T04:12:30;101430.00;;;7.00
66403;BMP180;53212;52.112;5.144;2023-12-20T04:14:57;101427.20;;;7.00
66403;BMP180;53212;52.112;5.144;2023-12-20T04:17:22;101429.40;;;7.04
66403;BMP180;53212;52.112;5.144;2023-12-20T04:19:51;101423.20;;;7.00
66403;BMP180;53212;52.112;5.144;2023-12-20T04:22:18;101429.40;;;7.10
66403;BMP180;53212;52.112;5.144;2023-12-20T04:24:44;101431.40;;;7.10
66403;BMP180;53212;52.112;5.144;2023-12-20T04:27:10;101431.20;;;7.10
66403;BMP180;53212;52.112;5.144;2023-12-20T04:29:35;101427.00;;;7.10
66403;BMP180;53212;52.112;5.144;2023-12-20T04:32:01;101421.40;;;7.10
66403;BMP180;53212;52.112;5.144;2023-12-20T04:34:26;101422.20;;;7.16
66403;BMP180;53212;52.112;5.144;2023-12-20T04:36:53;101424.60;;;7.20
66403;BMP180;53212;52.112;5.144;2023-12-20T04:39:18;101423.40;;;7.20
66403;BMP180;53212;52.112;5.144;2023-12-20T04:41:44;101426.80;;;7.20
66403;BMP180;53212;52.112;5.144;2023-12-20T04:44:09;101418.20;;;7.20
66403;BMP180;53212;52.112;5.144;2023-12-20T04:46:35;101415.60;;;7.20
66403;BMP180;53212;52.112;5.144;2023-12-20T04:49:00;101416.20;;;7.20
66403;BMP180;53212;52.112;5.144;2023-12-20T04:51:27;101421.60;;;7.20
66403;BMP180;53212;52.112;5.144;2023-12-20T04:53:52;101412.20;;;7.20
66403;BMP180;53212;52.112;5.144;2023-12-20T04:56:18;101413.40;;;7.20
66403;BMP180;53212;52.112;5.144;2023-12-20T04:58:43;101415.20;;;7.20
66403;BMP180;53212;52.112;5.144;2023-12-20T05:01:09;101419.80;;;7.20
66403;BMP180;53212;52.112;5.144;2023-12-20T05:03:35;101414.00;;;7.20
66403;BMP180;53212;52.112;5.144;2023-12-20T05:06:01;101414.40;;;7.20
66403;BMP180;53212;52.112;5.144;2023-12-20T05:08:27;101416.40;;;7.20
66403;BMP180;53212;52.112;5.144;2023-12-20T05:10:56;101417.20;;;7.20
66403;BMP180;53212;52.112;5.144;2023-12-20T05:13:22;101420.40;;;7.20
66403;BMP180;53212;52.112;5.144;2023-12-20T05:15:47;101416.20;;;7.20
66403;BMP180;53212;52.112;5.144;2023-12-20T05:18:13;101420.60;;;7.20
66403;BMP180;53212;52.112;5.144;2023-12-20T05:20:40;101414.60;;;7.20
66403;BMP180;53212;52.112;5.144;2023-12-20T05:23:06;101423.40;;;7.20
66403;BMP180;53212;52.112;5.144;2023-12-20T05:25:32;101427.40;;;7.20
66403;BMP180;53212;52.112;5.144;2023-12-20T05:27:57;101425.80;;;7.20
66403;BMP180;53212;52.112;5.144;2023-12-20T05:30:23;101426.20;;;7.20
66403;BMP180;53212;52.112;5.144;2023-12-20T05:32:48;101429.80;;;7.20
66403;BMP180;53212;52.112;5.144;2023-12-20T05:35:14;101422.00;;;7.20
66403;BMP180;53212;52.112;5.144;2023-12-20T05:37:41;101425.80;;;7.20
66403;BMP180;53212;52.112;5.144;2023-12-20T05:40:07;101414.20;;;7.20
66403;BMP180;53212;52.112;5.144;2023-12-20T05:42:38;101422.60;;;7.20
66403;BMP180;53212;52.112;5.144;2023-12-20T05:45:05;101411.80;;;7.24
66403;BMP180;53212;52.112;5.144;2023-12-20T05:47:31;101416.80;;;7.24
66403;BMP180;53212;52.112;5.144;2023-12-20T05:49:56;101415.00;;;7.28
66403;BMP180;53212;52.112;5.144;2023-12-20T05:52:22;101417.20;;;7.24
66403;BMP180;53212;52.112;5.144;2023-12-20T05:54:47;101417.00;;;7.28
66403;BMP180;53212;52.112;5.144;2023-12-20T05:57:13;101419.40;;;7.30
66403;BMP180;53212;52.112;5.144;2023-12-20T05:59:39;101409.20;;;7.30
66403;BMP180;53212;52.112;5.144;2023-12-20T06:02:05;101409.40;;;7.30
66403;BMP180;53212;52.112;5.144;2023-12-20T06:04:31;101415.40;;;7.30
66403;BMP180;53212;52.112;5.144;2023-12-20T06:06:56;101413.80;;;7.38
66403;BMP180;53212;52.112;5.144;2023-12-20T06:09:22;101417.80;;;7.40
66403;BMP180;53212;52.112;5.144;2023-12-20T06:11:47;101420.20;;;7.40
66403;BMP180;53212;52.112;5.144;2023-12-20T06:14:13;101415.40;;;7.40
66403;BMP180;53212;52.112;5.144;2023-12-20T06:16:38;101414.60;;;7.40
66403;BMP180;53212;52.112;5.144;2023-12-20T06:19:04;101419.00;;;7.46
66403;BMP180;53212;52.112;5.144;2023-12-20T06:21:29;101418.60;;;7.48
66403;BMP180;53212;52.112;5.144;2023-12-20T06:23:55;101417.40;;;7.50
66403;BMP180;53212;52.112;5.144;2023-12-20T06:26:20;101413.00;;;7.50
66403;BMP180;53212;52.112;5.144;2023-12-20T06:28:46;101417.80;;;7.50
66403;BMP180;53212;52.112;5.144;2023-12-20T06:31:11;101419.80;;;7.50
66403;BMP180;53212;52.112;5.144;2023-12-20T06:33:38;101413.20;;;7.50
66403;BMP180;53212;52.112;5.144;2023-12-20T06:36:06;101410.20;;;7.50
66403;BMP180;53212;52.112;5.144;2023-12-20T06:38:31;101411.00;;;7.50
66403;BMP180;53212;52.112;5.144;2023-12-20T06:40:57;101410.00;;;7.60
66403;BMP180;53212;52.112;5.144;2023-12-20T06:43:24;101408.40;;;7.60
66403;BMP180;53212;52.112;5.144;2023-12-20T06:45:50;101401.20;;;7.60
66403;BMP180;53212;52.112;5.144;2023-12-20T06:48:16;101399.80;;;7.60
66403;BMP180;53212;52.112;5.144;2023-12-20T06:50:42;101410.40;;;7.60
66403;BMP180;53212;52.112;5.144;2023-12-20T06:53:11;101393.20;;;7.62
66403;BMP180;53212;52.112;5.144;2023-12-20T06:55:38;101400.80;;;7.60
66403;BMP180;53212;52.112;5.144;2023-12-20T06:58:03;101398.00;;;7.70
66403;BMP180;53212;52.112;5.144;2023-12-20T07:00:30;101408.40;;;7.68
66403;BMP180;53212;52.112;5.144;2023-12-20T07:02:56;101399.20;;;7.70
66403;BMP180;53212;52.112;5.144;2023-12-20T07:05:21;101397.60;;;7.70
66403;BMP180;53212;52.112;5.144;2023-12-20T07:07:47;101395.60;;;7.70
66403;BMP180;53212;52.112;5.144;2023-12-20T07:10:13;101391.40;;;7.70
66403;BMP180;53212;52.112;5.144;2023-12-20T07:12:39;101399.00;;;7.70
66403;BMP180;53212;52.112;5.144;2023-12-20T07:15:05;101387.00;;;7.70
66403;BMP180;53212;52.112;5.144;2023-12-20T07:17:34;101392.40;;;7.70
66403;BMP180;53212;52.112;5.144;2023-12-20T07:20:00;101390.60;;;7.70
66403;BMP180;53212;52.112;5.144;2023-12-20T07:22:33;101377.40;;;7.72
66403;BMP180;53212;52.112;5.144;2023-12-20T07:24:59;101373.00;;;7.70
66403;BMP180;53212;52.112;5.144;2023-12-20T07:27:26;101373.80;;;7.70
66403;BMP180;53212;52.112;5.144;2023-12-20T07:29:51;101372.40;;;7.76
66403;BMP180;53212;52.112;5.144;2023-12-20T07:32:17;101371.00;;;7.72
66403;BMP180;53212;52.112;5.144;2023-12-20T07:34:43;101361.40;;;7.78
66403;BMP180;53212;52.112;5.144;2023-12-20T07:37:08;101361.60;;;7.76
66403;BMP180;53212;52.112;5.144;2023-12-20T07:39:40;101358.40;;;7.80
66403;BMP180;53212;52.112;5.144;2023-12-20T07:42:09;101363.40;;;7.80
66403;BMP180;53212;52.112;5.144;2023-12-20T07:44:35;101369.80;;;7.80
66403;BMP180;53212;52.112;5.144;2023-12-20T07:47:04;101377.20;;;7.80
66403;BMP180;53212;52.112;5.144;2023-12-20T07:49:31;101375.40;;;7.80
66403;BMP180;53212;52.112;5.144;2023-12-20T07:51:57;101384.20;;;7.80
66403;BMP180;53212;52.112;5.144;2023-12-20T07:54:22;101389.40;;;7.82
66403;BMP180;53212;52.112;5.144;2023-12-20T07:56:49;101394.60;;;7.90
66403;BMP180;53212;52.112;5.144;2023-12-20T07:59:14;101396.40;;;7.90
66403;BMP180;53212;52.112;5.144;2023-12-20T08:01:40;101396.20;;;7.90
66403;BMP180;53212;52.112;5.144;2023-12-20T08:04:05;101392.40;;;7.90
66403;BMP180;53212;52.112;5.144;2023-12-20T08:06:31;101404.80;;;7.90
66403;BMP180;53212;52.112;5.144;2023-12-20T08:08:57;101409.00;;;7.90
66403;BMP180;53212;52.112;5.144;2023-12-20T08:11:23;101421.00;;;8.00
66403;BMP180;53212;52.112;5.144;2023-12-20T08:13:48;101418.00;;;8.00
66403;BMP180;53212;52.112;5.144;2023-12-20T08:16:14;101408.40;;;8.00
66403;BMP180;53212;52.112;5.144;2023-12-20T08:18:41;101409.00;;;8.00
66403;BMP180;53212;52.112;5.144;2023-12-20T08:21:06;101413.00;;;8.00
66403;BMP180;53212;52.112;5.144;2023-12-20T08:23:34;101412.60;;;8.00
66403;BMP180;53212;52.112;5.144;2023-12-20T08:26:05;101410.80;;;8.00
66403;BMP180;53212;52.112;5.144;2023-12-20T08:28:33;101407.80;;;8.00
66403;BMP180;53212;52.112;5.144;2023-12-20T08:31:00;101397.60;;;8.00
66403;BMP180;53212;52.112;5.144;2023-12-20T08:33:26;101396.60;;;8.00
66403;BMP180;53212;52.112;5.144;2023-12-20T08:35:52;101388.20;;;8.00
66403;BMP180;53212;52.112;5.144;2023-12-20T08:38:17;101389.20;;;8.00
66403;BMP180;53212;52.112;5.144;2023-12-20T08:40:43;101383.60;;;8.00
66403;BMP180;53212;52.112;5.144;2023-12-20T08:43:09;101383.80;;;8.02
66403;BMP180;53212;52.112;5.144;2023-12-20T08:45:35;101392.40;;;8.10
66403;BMP180;53212;52.112;5.144;2023-12-20T08:48:01;101392.00;;;8.10
66403;BMP180;53212;52.112;5.144;2023-12-20T08:50:26;101385.40;;;8.10
66403;BMP180;53212;52.112;5.144;2023-12-20T08:52:52;101401.00;;;8.10
66403;BMP180;53212;52.112;5.144;2023-12-20T08:55:19;101394.40;;;8.10
66403;BMP180;53212;52.112;5.144;2023-12-20T08:57:45;101395.20;;;8.10
66403;BMP180;53212;52.112;5.144;2023-12-20T09:00:11;101388.80;;;8.10
66403;BMP180;53212;52.112;5.144;2023-12-20T09:02:37;101396.60;;;8.10
66403;BMP180;53212;52.112;5.144;2023-12-20T09:05:03;101384.40;;;8.10
66403;BMP180;53212;52.112;5.144;2023-12-20T09:07:29;101392.80;;;8.20
66403;BMP180;53212;52.112;5.144;2023-12-20T09:09:58;101395.20;;;8.20
66403;BMP180;53212;52.112;5.144;2023-12-20T09:12:24;101386.60;;;8.20
66403;BMP180;53212;52.112;5.144;2023-12-20T09:14:51;101396.80;;;8.30
66403;BMP180;53212;52.112;5.144;2023-12-20T09:17:18;101395.40;;;8.30
66403;BMP180;53212;52.112;5.144;2023-12-20T09:19:45;101388.60;;;8.30
66403;BMP180;53212;52.112;5.144;2023-12-20T09:22:11;101388.80;;;8.30
66403;BMP180;53212;52.112;5.144;2023-12-20T09:24:36;101377.80;;;8.40
66403;BMP180;53212;52.112;5.144;2023-12-20T09:27:02;101385.60;;;8.40
66403;BMP180;53212;52.112;5.144;2023-12-20T09:29:29;101390.80;;;8.50
66403;BMP180;53212;52.112;5.144;2023-12-20T09:31:55;101392.80;;;8.50
66403;BMP180;53212;52.112;5.144;2023-12-20T09:34:20;101389.40;;;8.50
66403;BMP180;53212;52.112;5.144;2023-12-20T09:36:47;101393.40;;;8.50
66403;BMP180;53212;52.112;5.144;2023-12-20T09:39:13;101390.80;;;8.50
66403;BMP180;53212;52.112;5.144;2023-12-20T09:41:44;101387.60;;;8.60
66403;BMP180;53212;52.112;5.144;2023-12-20T09:44:16;101394.00;;;8.60
66403;BMP180;53212;52.112;5.144;2023-12-20T09:46:45;101392.40;;;8.62
66403;BMP180;53212;52.112;5.144;2023-12-20T09:49:12;101403.60;;;8.70
66403;BMP180;53212;52.112;5.144;2023-12-20T09:51:39;101400.40;;;8.70
66403;BMP180;53212;52.112;5.144;2023-12-20T09:54:05;101399.40;;;8.70
66403;BMP180;53212;52.112;5.144;2023-12-20T09:56:31;101398.40;;;8.70
66403;BMP180;53212;52.112;5.144;2023-12-20T09:58:57;101394.40;;;8.80
66403;BMP180;53212;52.112;5.144;2023-12-20T10:01:24;101398.20;;;8.80
66403;BMP180;53212;52.112;5.144;2023-12-20T10:03:52;101403.60;;;8.84
66403;BMP180;53212;52.112;5.144;2023-12-20T10:06:19;101404.40;;;8.90
66403;BMP180;53212;52.112;5.144;2023-12-20T10:08:45;101410.40;;;8.90
66403;BMP180;53212;52.112;5.144;2023-12-20T10:11:11;101408.80;;;8.90
66403;BMP180;53212;52.112;5.144;2023-12-20T10:13:41;101406.80;;;9.00
66403;BMP180;53212;52.112;5.144;2023-12-20T10:16:07;101416.60;;;9.00
66403;BMP180;53212;52.112;5.144;2023-12-20T10:18:35;101408.20;;;9.00
66403;BMP180;53212;52.112;5.144;2023-12-20T10:21:01;101412.60;;;9.00
66403;BMP180;53212;52.112;5.144;2023-12-20T10:23:27;101410.00;;;9.10
66403;BMP180;53212;52.112;5.144;2023-12-20T10:25:57;101414.00;;;9.10
66403;BMP180;53212;52.112;5.144;2023-12-20T10:28:23;101410.20;;;9.10
66403;BMP180;53212;52.112;5.144;2023-12-20T10:30:53;101412.00;;;9.10
66403;BMP180;53212;52.112;5.144;2023-12-20T10:33:30;101408.60;;;9.10
66403;BMP180;53212;52.112;5.144;2023-12-20T10:35:57;101402.60;;;9.20
66403;BMP180;53212;52.112;5.144;2023-12-20T10:38:23;101402.60;;;9.20
66403;BMP180;53212;52.112;5.144;2023-12-20T10:40:53;101399.80;;;9.20
66403;BMP180;53212;52.112;5.144;2023-12-20T10:43:19;101398.60;;;9.10
66403;BMP180;53212;52.112;5.144;2023-12-20T10:45:45;101404.40;;;9.16
66403;BMP180;53212;52.112;5.144;2023-12-20T10:48:11;101403.80;;;9.20
66403;BMP180;53212;52.112;5.144;2023-12-20T10:50:41;101398.80;;;9.30
66403;BMP180;53212;52.112;5.144;2023-12-20T10:53:07;101383.40;;;9.36
66403;BMP180;53212;52.112;5.144;2023-12-20T10:55:33;101385.80;;;9.40
66403;BMP180;53212;52.112;5.144;2023-12-20T10:58:07;101382.80;;;9.40
66403;BMP180;53212;52.112;5.144;2023-12-20T11:00:40;101382.60;;;9.40
66403;BMP180;53212;52.112;5.144;2023-12-20T11:03:10;101382.60;;;9.50
66403;BMP180;53212;52.112;5.144;2023-12-20T11:05:50;101374.60;;;9.50
66403;BMP180;53212;52.112;5.144;2023-12-20T11:08:48;101370.20;;;9.60
66403;BMP180;53212;52.112;5.144;2023-12-20T11:11:24;101362.40;;;9.74
66403;BMP180;53212;52.112;5.144;2023-12-20T11:14:05;101368.00;;;9.80
66403;BMP180;53212;52.112;5.144;2023-12-20T11:16:37;101360.80;;;9.90
66403;BMP180;53212;52.112;5.144;2023-12-20T11:19:06;101367.20;;;10.00
66403;BMP180;53212;52.112;5.144;2023-12-20T11:21:32;101358.00;;;10.00
66403;BMP180;53212;52.112;5.144;2023-12-20T11:23:59;101357.60;;;9.90
66403;BMP180;53212;52.112;5.144;2023-12-20T11:26:29;101356.00;;;9.80
66403;BMP180;53212;52.112;5.144;2023-12-20T11:29:34;101349.80;;;9.70
66403;BMP180;53212;52.112;5.144;2023-12-20T11:34:51;101353.00;;;9.70
66403;BMP180;53212;52.112;5.144;2023-12-20T11:37:20;101355.20;;;9.70
66403;BMP180;53212;52.112;5.144;2023-12-20T11:39:53;101348.40;;;9.70
66403;BMP180;53212;52.112;5.144;2023-12-20T11:42:19;101344.80;;;9.78
66403;BMP180;53212;52.112;5.144;2023-12-20T11:44:45;101346.20;;;9.80
66403;BMP180;53212;52.112;5.144;2023-12-20T11:47:12;101337.40;;;9.88
66403;BMP180;53212;52.112;5.144;2023-12-20T11:49:39;101340.20;;;9.80
66403;BMP180;53212;52.112;5.144;2023-12-20T11:52:05;101338.40;;;9.82
66403;BMP180;53212;52.112;5.144;2023-12-20T11:54:31;101325.40;;;9.90
66403;BMP180;53212;52.112;5.144;2023-12-20T11:56:57;101325.40;;;9.90
66403;BMP180;53212;52.112;5.144;2023-12-20T11:59:23;101327.80;;;9.90
66403;BMP180;53212;52.112;5.144;2023-12-20T12:01:49;101325.80;;;9.82
66403;BMP180;53212;52.112;5.144;2023-12-20T12:04:18;101316.60;;;9.80
66403;BMP180;53212;52.112;5.144;2023-12-20T12:06:44;101315.40;;;9.80
66403;BMP180;53212;52.112;5.144;2023-12-20T12:09:10;101315.60;;;9.82
66403;BMP180;53212;52.112;5.144;2023-12-20T12:11:36;101327.40;;;9.80
66403;BMP180;53212;52.112;5.144;2023-12-20T12:14:02;101331.20;;;9.80
66403;BMP180;53212;52.112;5.144;2023-12-20T12:16:27;101344.60;;;9.80
66403;BMP180;53212;52.112;5.144;2023-12-20T12:18:57;101338.80;;;9.80
66403;BMP180;53212;52.112;5.144;2023-12-20T12:21:26;101333.60;;;9.70
66403;BMP180;53212;52.112;5.144;2023-12-20T12:23:52;101335.20;;;9.70
66403;BMP180;53212;52.112;5.144;2023-12-20T12:26:18;101334.60;;;9.74
66403;BMP180;53212;52.112;5.144;2023-12-20T12:28:44;101332.60;;;9.80
66403;BMP180;53212;52.112;5.144;2023-12-20T12:31:14;101326.40;;;9.90
66403;BMP180;53212;52.112;5.144;2023-12-20T12:33:43;101311.60;;;9.90
66403;BMP180;53212;52.112;5.144;2023-12-20T12:36:10;101309.60;;;9.90
66403;BMP180;53212;52.112;5.144;2023-12-20T12:38:36;101312.80;;;9.88
66403;BMP180;53212;52.112;5.144;2023-12-20T12:41:02;101314.60;;;9.80
66403;BMP180;53212;52.112;5.144;2023-12-20T12:43:27;101303.80;;;9.80
66403;BMP180;53212;52.112;5.144;2023-12-20T12:45:53;101302.80;;;9.80
66403;BMP180;53212;52.112;5.144;2023-12-20T12:48:18;101296.80;;;9.80
66403;BMP180;53212;52.112;5.144;2023-12-20T12:50:46;101305.20;;;9.80
66403;BMP180;53212;52.112;5.144;2023-12-20T12:53:11;101292.60;;;9.80
66403;BMP180;53212;52.112;5.144;2023-12-20T12:55:37;101294.80;;;9.80
66403;BMP180;53212;52.112;5.144;2023-12-20T12:58:02;101292.80;;;9.80
66403;BMP180;53212;52.112;5.144;2023-12-20T13:00:28;101283.00;;;9.80
66403;BMP180;53212;52.112;5.144;2023-12-20T13:02:53;101279.40;;;9.70
66403;BMP180;53212;52.112;5.144;2023-12-20T13:05:19;101285.60;;;9.70
66403;BMP180;53212;52.112;5.144;2023-12-20T13:07:44;101271.40;;;9.64
66403;BMP180;53212;52.112;5.144;2023-12-20T13:10:11;101259.80;;;9.60
66403;BMP180;53212;52.112;5.144;2023-12-20T13:12:41;101260.20;;;9.60
66403;BMP180;53212;52.112;5.144;2023-12-20T13:15:07;101255.00;;;9.60
66403;BMP180;53212;52.112;5.144;2023-12-20T13:17:32;101252.80;;;9.60
66403;BMP180;53212;52.112;5.144;2023-12-20T13:19:58;101244.40;;;9.60
66403;BMP180;53212;52.112;5.144;2023-12-20T13:22:25;101241.20;;;9.60
66403;BMP180;53212;52.112;5.144;2023-12-20T13:24:51;101230.60;;;9.60
66403;BMP180;53212;52.112;5.144;2023-12-20T13:27:16;101244.80;;;9.60
66403;BMP180;53212;52.112;5.144;2023-12-20T13:29:42;101248.00;;;9.60
66403;BMP180;53212;52.112;5.144;2023-12-20T13:32:07;101233.60;;;9.50
66403;BMP180;53212;52.112;5.144;2023-12-20T13:34:33;101226.20;;;9.60
66403;BMP180;53212;52.112;5.144;2023-12-20T13:36:58;101215.80;;;9.60
66403;BMP180;53212;52.112;5.144;2023-12-20T13:39:24;101217.00;;;9.60
66403;BMP180;53212;52.112;5.144;2023-12-20T13:41:49;101223.20;;;9.60
66403;BMP180;53212;52.112;5.144;2023-12-20T13:44:15;101215.60;;;9.60
66403;BMP180;53212;52.112;5.144;2023-12-20T13:46:41;101211.60;;;9.70
66403;BMP180;53212;52.112;5.144;2023-12-20T13:49:07;101211.60;;;9.70
66403;BMP180;53212;52.112;5.144;2023-12-20T13:51:33;101207.40;;;9.70
66403;BMP180;53212;52.112;5.144;2023-12-20T13:53:58;101200.80;;;9.70
66403;BMP180;53212;52.112;5.144;2023-12-20T13:56:25;101207.20;;;9.70
66403;BMP180;53212;52.112;5.144;2023-12-20T13:58:51;101212.20;;;9.70
66403;BMP180;53212;52.112;5.144;2023-12-20T14:01:17;101203.20;;;9.70
66403;BMP180;53212;52.112;5.144;2023-12-20T14:03:42;101200.20;;;9.70
66403;BMP180;53212;52.112;5.144;2023-12-20T14:06:07;101205.20;;;9.70
66403;BMP180;53212;52.112;5.144;2023-12-20T14:08:33;101200.80;;;9.70